Time;durP1;ratioP1;P1;durP2;ratioP2;P2;SDS_P1;SDS_P2;PMS_P1;PMS_P2;Temp;Humidity;BMP_temperature;BMP_pressure;BME280_temperature;BME280_humidity;BME280_pressure;Samples;Min_cycle;Max_cycle;Signal;HPM_P1;HPM_P2
2023/09/21 00:01:03;;;;;;;6.53;4.63;;;;;;;17.84;52.98;100036.41;4939558;28;20398;-69
2023/09/21 00:03:34;;;;;;;9.52;4.60;;;;;;;17.69;52.97;100017.63;4941051;28;20055;-70
2023/09/21 00:06:00;;;;;;;10.50;4.78;;;;;;;17.83;53.08;100037.31;4940496;28;20047;-71
2023/09/21 00:08:27;;;;;;;8.80;4.50;;;;;;;17.57;52.99;99995.22;4940466;28;20126;-70
2023/09/21 00:10:54;;;;;;;7.43;4.53;;;;;;;17.83;53.17;100039.94;4923447;29;20040;-70
2023/09/21 00:13:26;;;;;;;7.20;6.15;;;;;;;17.69;53.24;100022.88;4925855;29;20051;-71
2023/09/21 00:15:54;;;;;;;8.07;5.00;;;;;;;17.73;53.44;100029.75;4923184;29;20043;-69
2023/09/21 00:18:26;;;;;;;11.02;5.30;;;;;;;17.73;53.78;100032.41;4925940;29;20055;-71
2023/09/21 00:20:53;;;;;;;7.47;4.38;;;;;;;17.72;53.72;100038.56;4925278;29;20054;-70
2023/09/21 00:23:23;;;;;;;7.30;5.03;;;;;;;17.71;53.68;100028.06;4925133;29;20051;-70
2023/09/21 00:25:50;;;;;;;10.27;6.10;;;;;;;17.74;53.89;100041.13;4941591;28;20097;-70
2023/09/21 00:28:19;;;;;;;9.40;5.78;;;;;;;17.66;53.62;100027.38;4941234;28;20039;-71
2023/09/21 00:30:46;;;;;;;8.18;5.13;;;;;;;17.66;53.92;100032.63;4926554;29;20146;-72
2023/09/21 00:33:12;;;;;;;7.85;4.82;;;;;;;17.46;54.06;100011.38;4926821;29;20562;-71
2023/09/21 00:35:41;;;;;;;8.30;5.00;;;;;;;17.41;54.37;100015.09;4925694;29;20557;-71
2023/09/21 00:38:09;;;;;;;5.97;5.28;;;;;;;17.56;54.33;100040.84;4925274;29;20137;-71
2023/09/21 00:40:38;;;;;;;7.65;5.25;;;;;;;17.52;54.65;100043.66;4926507;29;20047;-71
2023/09/21 00:43:06;;;;;;;8.52;5.78;;;;;;;17.47;54.68;100038.53;4940258;28;20043;-71
2023/09/21 00:45:37;;;;;;;8.50;5.70;;;;;;;17.35;54.85;100028.44;4941048;28;20051;-70
2023/09/21 00:48:20;;;;;;;;;;;;;;;17.43;54.90;100050.09;4927640;29;20197;-71
2023/09/21 00:50:46;;;;;;;7.22;5.18;;;;;;;17.43;55.06;100048.31;4925956;29;19986;-71
2023/09/21 00:53:13;;;;;;;6.22;5.05;;;;;;;17.42;54.94;100046.56;4944362;28;20530;-69
2023/09/21 00:55:43;;;;;;;8.38;5.10;;;;;;;17.34;55.12;100047.75;4944345;28;20067;-70
2023/09/21 00:58:09;;;;;;;8.65;5.55;;;;;;;17.40;55.44;100058.06;4944521;28;20035;-72
2023/09/21 01:00:39;;;;;;;10.93;6.70;;;;;;;17.12;55.47;100019.53;4943428;28;20047;-72
2023/09/21 01:03:12;;;;;;;11.55;7.18;;;;;;;17.27;55.95;100039.22;4942098;28;20039;-73
2023/09/21 01:05:45;;;;;;;9.93;6.15;;;;;;;17.21;56.01;100034.13;4944335;28;20054;-74
2023/09/21 01:08:17;;;;;;;14.32;6.70;;;;;;;17.21;56.28;100026.25;4942269;28;20043;-72
2023/09/21 01:10:46;;;;;;;;;;;;;;;17.39;56.23;100054.56;4925670;29;20154;-74
2023/09/21 01:13:13;;;;;;;12.38;7.00;;;;;;;17.26;56.17;100030.44;4944818;28;19928;-73
2023/09/21 01:16:00;;;;;;;9.75;7.05;;;;;;;17.38;56.40;100058.09;4943353;28;20071;-75
2023/09/21 01:18:27;;;;;;;10.85;8.27;;;;;;;17.36;56.59;100061.72;4928964;29;20147;-73
2023/09/21 01:21:04;;;;;;;8.90;5.70;;;;;;;17.28;56.82;100049.66;4942325;28;20032;-73
2023/09/21 01:23:46;;;;;;;12.65;6.80;;;;;;;17.37;56.84;100068.69;4928873;29;20138;-71
2023/09/21 01:26:14;;;;;;;7.70;6.03;;;;;;;17.36;57.16;100066.97;4943902;28;20063;-72
2023/09/21 01:28:40;;;;;;;14.60;7.25;;;;;;;17.34;57.19;100064.38;4940224;28;20046;-72
2023/09/21 01:31:11;;;;;;;7.82;6.63;;;;;;;17.38;57.26;100075.66;4945307;28;20039;-73
2023/09/21 01:33:38;;;;;;;9.50;6.67;;;;;;;17.30;57.74;100060.16;4943260;28;20069;-72
2023/09/21 01:36:08;;;;;;;10.02;6.60;;;;;;;17.13;57.87;100040.50;4941254;28;20107;-74
2023/09/21 01:38:37;;;;;;;12.48;7.72;;;;;;;17.32;57.86;100066.22;4943042;28;20067;-72
2023/09/21 01:41:06;;;;;;;11.38;6.78;;;;;;;17.25;57.88;100064.69;4927569;29;20055;-72
2023/09/21 01:43:35;;;;;;;10.05;6.90;;;;;;;17.30;58.40;100073.28;4941221;28;20066;-72
2023/09/21 01:46:01;;;;;;;9.25;6.70;;;;;;;16.97;58.62;100028.75;4944553;28;20442;-74
2023/09/21 01:48:27;;;;;;;11.43;6.22;;;;;;;17.27;59.03;100079.50;4928522;29;20542;-72
2023/09/21 01:50:57;;;;;;;10.05;6.68;;;;;;;17.14;59.07;100060.63;4930703;29;20107;-73
2023/09/21 01:53:24;;;;;;;10.32;7.00;;;;;;;17.12;59.32;100072.94;4943815;28;20111;-71
2023/09/21 01:55:51;;;;;;;10.38;6.85;;;;;;;17.25;59.50;100091.84;4930317;29;20110;-73
2023/09/21 01:58:19;;;;;;;11.70;7.00;;;;;;;17.24;59.81;100090.09;4940075;28;20048;-74
2023/09/21 02:00:47;;;;;;;8.90;6.72;;;;;;;17.21;60.03;100076.22;4944109;28;20058;-72
2023/09/21 02:03:17;;;;;;;11.65;7.90;;;;;;;17.02;60.13;100056.63;4944146;28;20040;-71
2023/09/21 02:05:46;;;;;;;10.38;7.38;;;;;;;17.00;60.20;100050.53;4923536;29;20099;-71
2023/09/21 02:08:16;;;;;;;10.65;6.85;;;;;;;17.23;60.25;100093.66;4928289;29;20039;-72
2023/09/21 02:10:42;;;;;;;10.60;6.40;;;;;;;17.08;60.61;100065.22;4943469;28;20047;-71
2023/09/21 02:13:09;;;;;;;13.77;8.18;;;;;;;17.12;60.60;100075.59;4941252;28;20062;-71
2023/09/21 02:15:40;;;;;;;12.82;9.80;;;;;;;17.07;60.73;100061.75;4927905;29;20055;-72
2023/09/21 02:18:09;;;;;;;10.52;7.22;;;;;;;17.22;61.12;100080.56;4940943;28;20127;-72
2023/09/21 02:20:49;;;;;;;10.10;6.93;;;;;;;17.27;61.11;100087.38;4942644;28;20043;-72
2023/09/21 02:23:17;;;;;;;11.85;7.53;;;;;;;17.26;61.06;100098.81;4928177;29;20045;-71
2023/09/21 02:25:43;;;;;;;10.55;7.25;;;;;;;17.28;61.29;100097.00;4940146;28;20173;-72
2023/09/21 02:28:11;;;;;;;11.32;7.50;;;;;;;17.17;61.50;100084.19;4926468;29;20031;-71
2023/09/21 02:30:42;;;;;;;13.43;8.88;;;;;;;17.28;61.42;100098.78;4943510;28;20375;-73
2023/09/21 02:33:09;;;;;;;17.15;8.20;;;;;;;17.03;61.74;100062.75;4943113;28;20062;-72
2023/09/21 02:35:40;;;;;;;10.48;7.70;;;;;;;17.24;61.93;100099.78;4941756;28;20529;-74
2023/09/21 02:38:12;;;;;;;12.80;7.75;;;;;;;17.05;62.00;100071.44;4909275;29;20078;-71
2023/09/21 02:40:40;;;;;;;10.65;7.85;;;;;;;17.15;62.18;100093.91;4942754;28;20075;-71
2023/09/21 02:43:08;;;;;;;11.57;7.68;;;;;;;17.24;62.17;100097.16;4923622;29;20031;-72
2023/09/21 02:45:36;;;;;;;12.38;7.82;;;;;;;17.20;62.32;100104.28;4928027;29;20142;-72
2023/09/21 02:48:05;;;;;;;11.00;8.18;;;;;;;17.16;62.56;100098.25;4942210;28;20035;-73
2023/09/21 02:50:34;;;;;;;11.18;8.27;;;;;;;17.06;62.49;100086.31;4926914;29;20099;-73
2023/09/21 02:53:09;;;;;;;13.57;8.20;;;;;;;17.01;63.06;100075.91;4941808;28;20039;-73
2023/09/21 02:55:37;;;;;;;14.57;8.07;;;;;;;17.14;63.01;100093.94;4917622;29;20119;-71
2023/09/21 02:58:12;;;;;;;12.80;8.55;;;;;;;16.93;63.25;100059.50;4903791;29;20532;-71
2023/09/21 03:00:56;;;;;;;13.15;8.05;;;;;;;17.10;63.45;100087.06;4940516;28;20054;-71
2023/09/21 03:03:23;;;;;;;14.90;8.77;;;;;;;17.20;63.81;100103.41;4923616;29;20190;-71
2023/09/21 03:05:51;;;;;;;13.68;8.15;;;;;;;17.04;63.86;100077.63;4942240;28;20039;-71
2023/09/21 03:08:18;;;;;;;13.65;8.55;;;;;;;17.22;64.10;100107.69;4927611;29;20043;-71
2023/09/21 03:10:50;;;;;;;13.75;8.30;;;;;;;17.15;64.13;100098.31;4942005;28;20047;-71
2023/09/21 03:13:18;;;;;;;15.95;8.80;;;;;;;17.24;64.36;100111.16;4924976;29;20065;-71
2023/09/21 03:15:51;;;;;;;13.98;8.98;;;;;;;17.19;64.38;100109.56;4941874;28;20047;-71
2023/09/21 03:18:23;;;;;;;15.55;8.98;;;;;;;17.12;64.63;100099.25;4941915;28;20036;-71
2023/09/21 03:20:51;;;;;;;13.93;8.60;;;;;;;17.17;64.55;100109.63;4941987;28;20119;-72
2023/09/21 03:23:18;;;;;;;16.13;9.05;;;;;;;17.10;64.73;100100.22;4925519;29;20051;-72
2023/09/21 03:25:53;;;;;;;12.43;9.02;;;;;;;17.15;64.98;100106.19;4939192;28;20087;-70
2023/09/21 03:28:22;;;;;;;14.00;9.15;;;;;;;17.02;65.11;100096.03;4926793;29;20047;-72
2023/09/21 03:30:50;;;;;;;11.75;8.75;;;;;;;17.11;65.20;100108.03;4927260;29;20039;-71
2023/09/21 03:33:18;;;;;;;13.20;8.85;;;;;;;17.17;65.45;100121.00;4926427;29;20398;-71
2023/09/21 03:35:45;;;;;;;13.20;9.35;;;;;;;17.20;65.34;100130.59;4941432;28;20047;-71
2023/09/21 03:38:12;;;;;;;13.80;8.82;;;;;;;17.13;65.24;100127.25;4925209;29;20040;-71
2023/09/21 03:40:41;;;;;;;13.55;9.20;;;;;;;17.20;65.66;100140.22;4939721;28;20039;-71
2023/09/21 03:43:15;;;;;;;13.40;8.68;;;;;;;17.21;65.47;100141.94;4941288;28;20066;-72
2023/09/21 03:45:44;;;;;;;10.77;8.02;;;;;;;17.09;65.88;100132.66;4924692;29;20861;-71
2023/09/21 03:48:12;;;;;;;12.45;8.90;;;;;;;17.26;65.84;100147.94;4925894;29;20070;-72
2023/09/21 03:50:41;;;;;;;13.57;9.55;;;;;;;17.08;65.90;100110.78;4940615;28;20039;-72
2023/09/21 03:53:09;;;;;;;12.50;8.70;;;;;;;17.33;66.01;100148.59;4924973;29;20047;-73
2023/09/21 03:55:46;;;;;;;15.43;9.25;;;;;;;17.35;66.14;100149.41;4925268;29;20039;-72
2023/09/21 03:58:14;;;;;;;13.50;8.18;;;;;;;17.26;65.89;100130.38;4926700;29;20126;-73
2023/09/21 04:00:41;;;;;;;16.98;9.18;;;;;;;17.35;65.85;100147.63;4909038;29;20569;-72
2023/09/21 04:03:09;;;;;;;12.25;8.98;;;;;;;17.35;65.85;100155.50;4940901;28;20040;-73
2023/09/21 04:05:51;;;;;;;15.00;9.32;;;;;;;17.28;65.91;100151.38;4940568;28;20039;-71
2023/09/21 04:08:18;;;;;;;12.93;9.93;;;;;;;17.33;66.23;100153.84;4925188;29;20043;-72
2023/09/21 04:10:45;;;;;;;13.45;9.25;;;;;;;17.11;66.01;100122.97;4937512;28;20054;-72
2023/09/21 04:13:11;;;;;;;13.32;9.98;;;;;;;17.07;66.18;100114.31;4940073;28;20054;-72
2023/09/21 04:15:37;;;;;;;13.95;9.57;;;;;;;17.29;66.32;100150.47;4926735;29;20446;-72
2023/09/21 04:18:03;;;;;;;12.52;9.13;;;;;;;17.35;66.44;100158.16;4903125;29;20103;-71
2023/09/21 04:20:34;;;;;;;14.00;9.90;;;;;;;17.36;66.11;100162.50;4922095;29;20043;-72
2023/09/21 04:23:00;;;;;;;16.52;10.27;;;;;;;17.41;66.40;100165.00;4927046;29;20040;-71
2023/09/21 04:25:26;;;;;;;15.75;9.27;;;;;;;17.31;66.33;100152.13;4925595;29;20051;-71
2023/09/21 04:27:53;;;;;;;13.20;9.23;;;;;;;17.28;66.36;100151.38;4934773;28;20130;-72
2023/09/21 04:30:23;;;;;;;12.93;8.93;;;;;;;17.41;66.54;100165.84;4943285;28;20055;-70
2023/09/21 04:32:54;;;;;;;13.52;9.20;;;;;;;17.43;66.46;100171.09;4943715;28;20035;-71
2023/09/21 04:35:22;;;;;;;14.55;9.95;;;;;;;17.34;66.38;100153.78;4940131;28;20478;-71
2023/09/21 04:37:56;;;;;;;12.23;8.95;;;;;;;17.34;66.49;100152.94;4944447;28;20178;-71
2023/09/21 04:40:25;;;;;;;16.98;9.50;;;;;;;17.31;66.58;100140.75;4928695;29;20054;-71
2023/09/21 04:42:51;;;;;;;14.70;9.27;;;;;;;17.45;66.59;100167.47;4942530;28;20091;-71
2023/09/21 04:45:19;;;;;;;12.85;9.00;;;;;;;17.51;66.64;100176.94;4929190;29;20091;-70
2023/09/21 04:47:52;;;;;;;14.80;9.30;;;;;;;17.38;66.69;100155.41;4944714;28;20039;-71
2023/09/21 04:50:20;;;;;;;17.20;9.63;;;;;;;17.47;66.58;100170.06;4911046;29;20135;-71
2023/09/21 04:52:49;;;;;;;14.82;9.20;;;;;;;17.39;66.59;100145.78;4927876;29;20047;-71
2023/09/21 04:55:17;;;;;;;14.48;9.55;;;;;;;17.61;66.73;100181.00;4944191;28;20052;-71
2023/09/21 04:57:46;;;;;;;15.88;9.82;;;;;;;17.28;66.73;100118.03;4927487;29;20052;-71
2023/09/21 05:00:15;;;;;;;11.80;9.40;;;;;;;17.63;66.75;100178.31;4943781;28;20048;-72
2023/09/21 05:02:43;;;;;;;11.95;8.85;;;;;;;17.68;66.60;100172.91;4939735;28;20050;-70
2023/09/21 05:05:14;;;;;;;12.63;9.27;;;;;;;17.77;66.71;100181.34;4927835;29;20462;-71
2023/09/21 05:07:42;;;;;;;13.25;9.68;;;;;;;17.83;66.52;100187.34;4939996;28;20142;-71
2023/09/21 05:10:11;;;;;;;12.57;9.13;;;;;;;17.96;66.55;100195.69;4939756;28;20090;-71
2023/09/21 05:12:39;;;;;;;13.97;9.70;;;;;;;17.97;66.60;100189.50;4906581;29;20070;-71
2023/09/21 05:15:08;;;;;;;13.43;9.48;;;;;;;18.06;66.25;100199.78;4940448;28;20059;-71
2023/09/21 05:17:37;;;;;;;15.75;9.63;;;;;;;18.06;66.06;100200.63;4940891;28;20122;-71
2023/09/21 05:20:05;;;;;;;14.15;9.95;;;;;;;18.14;66.15;100203.00;4926073;29;20118;-71
2023/09/21 05:22:32;;;;;;;13.15;10.05;;;;;;;18.12;66.04;100198.72;4927155;29;20455;-72
2023/09/21 05:25:00;;;;;;;11.77;9.73;;;;;;;18.27;65.94;100206.06;4942356;28;21743;-72
2023/09/21 05:27:32;;;;;;;13.27;10.30;;;;;;;18.31;65.77;100215.59;4932784;29;20094;-74
2023/09/21 05:30:01;;;;;;;14.35;9.43;;;;;;;18.12;65.30;100175.84;4930356;29;21556;-75
2023/09/21 05:32:33;;;;;;;13.43;9.80;;;;;;;18.39;65.49;100201.31;4946489;28;20368;-75
2023/09/21 05:35:00;;;;;;;13.20;9.60;;;;;;;18.54;65.43;100206.03;4931712;29;20047;-71
2023/09/21 05:37:26;;;;;;;11.85;9.18;;;;;;;18.56;65.23;100208.59;4947766;28;20039;-75
2023/09/21 05:39:52;;;;;;;12.45;9.25;;;;;;;18.57;65.12;100207.69;4930396;29;20062;-75
2023/09/21 05:42:18;;;;;;;14.43;9.48;;;;;;;18.56;65.06;100192.78;4923343;29;20078;-71
2023/09/21 05:44:45;;;;;;;12.80;9.63;;;;;;;18.61;64.88;100202.28;4945738;28;20186;-74
2023/09/21 05:47:12;;;;;;;13.35;9.90;;;;;;;18.58;64.69;100199.75;4941899;28;20035;-75
2023/09/21 05:49:39;;;;;;;16.98;9.70;;;;;;;18.61;64.99;100204.91;4929016;29;20251;-74
2023/09/21 05:52:11;;;;;;;14.05;9.63;;;;;;;18.55;65.12;100197.22;4928785;29;20135;-76
2023/09/21 05:54:42;;;;;;;15.43;9.68;;;;;;;18.68;64.88;100218.72;4929864;29;20059;-76
2023/09/21 05:57:09;;;;;;;15.27;10.98;;;;;;;18.77;64.94;100218.38;4930035;29;20505;-75
2023/09/21 05:59:36;;;;;;;13.48;9.50;;;;;;;18.85;64.77;100210.19;4946021;28;20141;-79
2023/09/21 06:02:05;;;;;;;15.70;9.13;;;;;;;18.97;64.72;100219.47;4928031;29;20090;-78
2023/09/21 06:04:34;;;;;;;12.77;9.00;;;;;;;19.15;64.25;100227.59;4928984;29;20059;-78
2023/09/21 06:07:03;;;;;;;14.73;9.18;;;;;;;19.03;64.27;100202.56;4946430;28;20050;-78
2023/09/21 06:09:29;;;;;;;15.60;9.65;;;;;;;19.10;63.96;100206.66;4927688;29;20083;-79
2023/09/21 06:11:55;;;;;;;12.80;9.10;;;;;;;19.31;63.64;100238.44;4925050;29;20078;-73
2023/09/21 06:14:22;;;;;;;12.95;8.82;;;;;;;19.43;63.82;100237.94;4928385;29;20059;-76
2023/09/21 06:16:49;;;;;;;17.98;10.05;;;;;;;19.47;63.33;100225.47;4943610;28;20099;-78
2023/09/21 06:19:15;;;;;;;13.65;8.80;;;;;;;19.48;62.96;100214.00;4945591;28;20536;-75
2023/09/21 06:21:42;;;;;;;11.07;8.90;;;;;;;19.69;62.63;100241.34;4927883;29;20090;-74
2023/09/21 06:24:09;;;;;;;15.95;8.98;;;;;;;19.77;62.35;100241.88;4927090;29;20047;-72
2023/09/21 06:26:36;;;;;;;16.50;8.60;;;;;;;19.85;62.36;100231.88;4927369;29;20148;-75
2023/09/21 06:29:03;;;;;;;11.63;8.73;;;;;;;19.95;61.82;100239.47;4929572;29;20051;-78
2023/09/21 06:31:30;;;;;;;12.25;8.45;;;;;;;19.96;61.76;100230.63;4928250;29;20063;-75
2023/09/21 06:33:59;;;;;;;15.02;9.02;;;;;;;20.20;61.44;100247.22;4927197;29;20071;-79
2023/09/21 06:36:28;;;;;;;14.77;7.95;;;;;;;20.16;60.98;100228.00;4940908;28;20054;-77
2023/09/21 06:38:57;;;;;;;13.90;8.30;;;;;;;20.42;60.47;100247.16;4925494;29;20062;-75
2023/09/21 06:41:25;;;;;;;14.35;8.05;;;;;;;20.40;60.25;100204.13;4940505;28;20055;-79
2023/09/21 06:43:52;;;;;;;10.45;7.45;;;;;;;20.78;59.68;100229.78;4924797;29;20050;-79
2023/09/21 06:46:18;;;;;;;13.10;7.95;;;;;;;21.06;58.86;100244.41;4932816;29;20698;-78
2023/09/21 06:48:45;;;;;;;12.68;8.40;;;;;;;21.06;58.68;100242.66;4921559;29;20047;-77
2023/09/21 06:51:12;;;;;;;12.18;7.75;;;;;;;21.15;57.97;100227.25;4927767;29;20043;-78
2023/09/21 06:53:39;;;;;;;15.20;7.82;;;;;;;21.37;57.75;100238.56;4929766;29;20111;-76
2023/09/21 06:56:08;;;;;;;10.95;7.70;;;;;;;21.62;57.06;100241.88;4930991;29;20044;-79
2023/09/21 06:58:35;;;;;;;14.45;7.65;;;;;;;21.73;56.76;100236.06;4926608;29;20043;-80
2023/09/21 07:01:04;;;;;;;9.55;7.68;;;;;;;21.94;56.02;100239.44;4925913;29;20043;-80
2023/09/21 07:03:30;;;;;;;15.02;7.75;;;;;;;22.13;55.32;100242.03;4929626;29;20139;-80
2023/09/21 07:05:56;;;;;;;11.93;7.40;;;;;;;22.36;54.82;100237.38;4943530;28;20062;-76
2023/09/21 07:08:22;;;;;;;12.68;7.10;;;;;;;22.70;53.59;100236.50;4928585;29;20063;-80
2023/09/21 07:10:49;;;;;;;14.50;6.90;;;;;;;23.06;53.05;100231.09;4927736;29;20043;-76
2023/09/21 07:13:18;;;;;;;14.23;7.63;;;;;;;23.56;51.52;100213.31;4928169;28;20163;-76
2023/09/21 07:15:47;;;;;;;12.73;7.25;;;;;;;24.95;50.53;100226.44;4939346;28;20047;-76
2023/09/21 07:18:14;;;;;;;13.82;6.65;;;;;;;26.60;48.46;100223.72;4927538;29;20047;-81
2023/09/21 07:20:40;;;;;;;13.00;7.03;;;;;;;27.51;45.45;100195.94;4929488;29;20040;-78
2023/09/21 07:23:06;;;;;;;13.73;7.70;;;;;;;27.67;43.00;100202.81;4926781;29;20502;-74
2023/09/21 07:25:32;;;;;;;11.32;7.10;;;;;;;27.83;42.53;100215.03;4926844;29;20048;-77
2023/09/21 07:27:58;;;;;;;13.80;7.40;;;;;;;27.61;42.71;100206.81;4910242;29;20181;-76
2023/09/21 07:30:31;;;;;;;11.00;6.93;;;;;;;29.65;42.63;100199.09;4937744;28;20063;-76
2023/09/21 07:32:57;;;;;;;11.00;6.63;;;;;;;33.05;37.79;100204.63;4938011;28;20138;-78
2023/09/21 07:35:23;;;;;;;11.10;7.20;;;;;;;34.96;33.70;100185.44;4928215;29;20054;-78
2023/09/21 07:37:51;;;;;;;12.20;7.20;;;;;;;35.88;32.23;100207.06;4938655;28;20082;-74
2023/09/21 07:40:21;;;;;;;11.95;7.53;;;;;;;35.13;31.93;100197.97;4924285;29;20051;-79
2023/09/21 07:42:51;;;;;;;16.48;6.88;;;;;;;35.89;30.52;100213.31;4924175;29;20534;-74
2023/09/21 07:45:22;;;;;;;14.73;6.32;;;;;;;37.37;28.97;100212.06;4939272;28;20036;-77
2023/09/21 07:47:49;;;;;;;15.63;7.90;;;;;;;37.79;27.08;100212.63;4926372;29;20138;-81
2023/09/21 07:50:18;;;;;;;19.33;7.45;;;;;;;36.92;26.70;100232.59;4928790;29;20110;-79
2023/09/21 07:52:45;;;;;;;17.45;7.07;;;;;;;37.25;26.68;100208.06;4927512;29;20047;-78
2023/09/21 07:55:12;;;;;;;10.27;6.90;;;;;;;37.53;25.68;100194.00;4941242;28;20051;-79
2023/09/21 07:57:39;;;;;;;12.65;7.20;;;;;;;38.64;24.72;100207.06;4931743;28;20490;-83
2023/09/21 08:00:10;;;;;;;11.15;6.78;;;;;;;40.23;23.23;100193.69;4926158;29;20055;-79
2023/09/21 08:02:36;;;;;;;16.13;7.20;;;;;;;39.49;22.73;100214.81;4930865;29;20070;-79
2023/09/21 08:05:04;;;;;;;12.68;6.30;;;;;;;37.81;22.85;100202.44;4929489;29;20051;-79
2023/09/21 08:07:33;;;;;;;10.38;6.40;;;;;;;36.27;24.22;100210.09;4942118;28;20102;-77
2023/09/21 08:10:06;;;;;;;12.80;6.22;;;;;;;35.27;25.10;100220.84;4925794;29;20039;-80
2023/09/21 08:12:36;;;;;;;12.35;6.60;;;;;;;34.18;25.92;100211.47;4952774;28;20051;-80
2023/09/21 08:15:06;;;;;;;11.98;6.70;;;;;;;33.38;26.56;100231.97;4932073;29;20059;-78
2023/09/21 08:17:36;;;;;;;17.92;7.25;;;;;;;32.40;27.49;100248.50;4948763;28;20502;-78
2023/09/21 08:20:04;;;;;;;15.80;7.63;;;;;;;31.58;28.03;100194.13;4936717;28;20115;-76
2023/09/21 08:22:33;;;;;;;;;;;;;;;31.24;29.24;100249.94;4932202;29;20103;-78
2023/09/21 08:25:01;;;;;;;10.25;7.15;;;;;;;30.34;29.77;100233.50;4935952;29;21275;-80
2023/09/21 08:27:29;;;;;;;15.40;7.10;;;;;;;29.56;31.06;100230.19;4949012;28;20051;-79
2023/09/21 08:29:57;;;;;;;15.13;8.13;;;;;;;29.05;31.54;100229.75;4930819;29;20039;-80
2023/09/21 08:32:25;;;;;;;12.00;7.50;;;;;;;28.75;32.63;100249.97;4949767;28;20040;-79
2023/09/21 08:35:00;;;;;;;15.45;8.13;;;;;;;28.23;33.05;100228.94;4925679;29;20047;-80
2023/09/21 08:37:26;;;;;;;15.02;7.68;;;;;;;28.06;33.66;100248.06;4936808;29;20036;-78
2023/09/21 08:39:52;;;;;;;13.02;7.65;;;;;;;28.08;34.15;100251.47;4932870;29;20058;-79
2023/09/21 08:42:18;;;;;;;16.20;8.10;;;;;;;28.15;34.13;100260.75;4936493;29;20043;-79
2023/09/21 08:44:46;;;;;;;16.52;8.25;;;;;;;28.13;33.99;100235.09;4932636;29;20071;-80
2023/09/21 08:47:14;;;;;;;14.65;8.48;;;;;;;28.10;34.13;100257.56;4932532;29;20043;-81
2023/09/21 08:49:45;;;;;;;13.10;7.55;;;;;;;28.14;34.48;100256.38;4931461;29;20043;-79
2023/09/21 08:52:13;;;;;;;15.05;8.05;;;;;;;28.11;34.84;100259.31;4933830;29;20138;-79
2023/09/21 08:54:40;;;;;;;10.38;7.68;;;;;;;28.14;35.21;100234.13;4951962;28;20039;-79
2023/09/21 08:57:10;;;;;;;14.75;7.55;;;;;;;28.52;34.71;100257.94;4930371;29;20111;-76
2023/09/21 08:59:41;;;;;;;17.77;8.10;;;;;;;27.85;34.79;100238.03;4949881;28;20095;-78
2023/09/21 09:02:13;;;;;;;14.15;7.70;;;;;;;27.68;35.38;100252.63;4932865;29;20054;-78
2023/09/21 09:05:13;;;;;;;11.57;7.70;;;;;;;27.23;35.72;100266.53;4946916;28;20039;-81
2023/09/21 09:07:41;;;;;;;19.63;8.85;;;;;;;26.66;36.22;100267.84;4917140;29;20035;-79
2023/09/21 09:10:12;;;;;;;18.77;7.95;;;;;;;26.31;36.87;100274.63;4947796;28;20044;-77
2023/09/21 09:12:39;;;;;;;14.90;9.02;;;;;;;25.85;37.72;100223.38;4948914;28;20039;-76
2023/09/21 09:15:08;;;;;;;12.13;7.68;;;;;;;26.02;37.44;100259.59;4946995;28;20055;-76
2023/09/21 09:17:36;;;;;;;9.68;7.75;;;;;;;25.73;37.77;100247.31;4932186;29;20039;-76
2023/09/21 09:20:05;;;;;;;14.20;7.90;;;;;;;25.81;38.38;100255.69;4933051;29;20070;-80
2023/09/21 09:22:34;;;;;;;15.45;7.70;;;;;;;26.06;37.98;100265.56;4935157;29;20505;-82
2023/09/21 09:25:05;;;;;;;18.17;7.53;;;;;;;26.38;38.29;100269.72;4931848;29;20130;-75
2023/09/21 09:27:34;;;;;;;16.75;8.05;;;;;;;26.64;37.59;100241.22;4932118;29;20210;-74
2023/09/21 09:30:03;;;;;;;21.13;8.05;;;;;;;26.94;37.02;100249.91;4930761;29;20047;-81
2023/09/21 09:32:42;;;;;;;20.40;8.00;;;;;;;27.09;36.97;100256.84;4942685;28;20047;-77
2023/09/21 09:35:13;;;;;;;15.93;8.25;;;;;;;26.84;37.11;100250.56;4931641;29;20040;-78
2023/09/21 09:37:40;;;;;;;16.23;8.65;;;;;;;26.69;37.11;100256.94;4927853;29;21889;-77
2023/09/21 09:40:18;;;;;;;13.30;8.00;;;;;;;26.48;37.39;100262.81;4946102;28;20059;-77
2023/09/21 09:42:48;;;;;;;16.23;7.50;;;;;;;26.27;37.95;100249.94;4932604;29;20048;-76
2023/09/21 09:45:20;;;;;;;11.88;7.07;;;;;;;26.42;38.36;100272.06;4928939;29;20107;-78
2023/09/21 09:47:57;;;;;;;13.00;7.47;;;;;;;26.48;38.06;100277.94;4940480;29;20054;-80
2023/09/21 09:50:24;;;;;;;11.48;6.90;;;;;;;26.57;37.66;100277.31;4937308;28;20071;-79
2023/09/21 09:53:03;;;;;;;8.60;7.20;;;;;;;26.46;37.84;100276.22;4944978;29;20047;-79
2023/09/21 09:55:33;;;;;;;12.02;7.00;;;;;;;26.11;37.89;100244.78;4944797;28;20044;-81
2023/09/21 09:58:00;;;;;;;15.03;8.23;;;;;;;25.94;37.84;100256.56;4933646;29;20937;-77
2023/09/21 10:00:27;;;;;;;13.00;7.55;;;;;;;25.82;38.08;100274.22;4931528;29;20156;-80
2023/09/21 10:02:58;;;;;;;15.75;8.40;;;;;;;24.97;38.64;100159.78;4937006;29;20052;-79
2023/09/21 10:05:27;;;;;;;14.82;8.15;;;;;;;25.63;38.42;100274.56;4934497;29;20044;-79
2023/09/21 10:07:59;;;;;;;11.70;7.68;;;;;;;25.34;39.15;100252.44;4947995;28;20063;-79
2023/09/21 10:10:30;;;;;;;14.43;7.03;;;;;;;25.59;39.30;100283.72;4933644;29;20274;-78
2023/09/21 10:12:57;;;;;;;12.93;7.80;;;;;;;25.68;39.31;100284.94;4907396;29;20043;-79
2023/09/21 10:15:24;;;;;;;11.88;7.25;;;;;;;25.71;39.67;100292.72;4929688;29;21858;-76
2023/09/21 10:17:55;;;;;;;8.32;7.40;;;;;;;25.70;39.37;100283.03;4930140;29;20047;-78
2023/09/21 10:20:27;;;;;;;13.10;7.70;;;;;;;25.69;39.46;100281.31;4925587;29;20039;-75
2023/09/21 10:22:55;;;;;;;16.00;7.60;;;;;;;25.64;39.67;100276.28;4930796;29;20047;-75
2023/09/21 10:25:39;;;;;;;10.70;6.90;;;;;;;25.61;39.33;100257.81;4933958;29;20082;-84
2023/09/21 10:28:29;;;;;;;12.45;6.70;;;;;;;25.89;39.38;100295.16;4945848;28;20127;-83
2023/09/21 10:31:22;;;;;;;11.70;7.53;;;;;;;25.92;39.41;100289.63;4943867;28;20040;-81
2023/09/21 10:33:52;;;;;;;11.25;7.90;;;;;;;25.96;39.73;100294.66;4929541;29;20044;-80
2023/09/21 10:36:21;;;;;;;17.50;8.15;;;;;;;25.91;39.33;100270.09;4922355;29;20043;-74
2023/09/21 10:39:05;;;;;;;18.95;7.63;;;;;;;25.88;39.58;100285.44;4943200;28;20040;-74
2023/09/21 10:41:36;;;;;;;15.57;7.75;;;;;;;25.91;39.98;100291.41;4925709;29;20513;-77
2023/09/21 10:44:02;;;;;;;13.88;8.00;;;;;;;26.05;39.79;100281.66;4941294;28;20498;-77
2023/09/21 10:46:40;;;;;;;13.27;7.75;;;;;;;26.31;39.74;100266.63;4926962;29;20495;-76
2023/09/21 10:49:06;;;;;;;16.98;7.80;;;;;;;26.85;39.24;100286.97;4939277;28;20039;-75
2023/09/21 10:51:33;;;;;;;14.48;7.80;;;;;;;26.97;39.09;100253.22;4944467;28;20554;-75
2023/09/21 10:54:03;;;;;;;14.70;7.65;;;;;;;27.40;38.41;100267.97;4932720;29;20043;-73
2023/09/21 10:56:35;;;;;;;10.98;7.95;;;;;;;27.57;37.92;100274.78;4928350;29;20480;-80
2023/09/21 10:59:01;;;;;;;17.00;7.28;;;;;;;27.52;37.51;100268.94;4935619;29;20051;-79
2023/09/21 11:01:28;;;;;;;13.70;7.20;;;;;;;27.60;37.60;100282.59;4929714;29;20043;-78
2023/09/21 11:03:55;;;;;;;11.85;7.50;;;;;;;27.53;37.68;100277.81;4930628;29;20039;-74
2023/09/21 11:06:21;;;;;;;8.88;7.57;;;;;;;27.19;38.15;100281.06;4940627;28;20094;-76
2023/09/21 11:08:48;;;;;;;11.48;7.30;;;;;;;26.89;38.06;100271.59;4944457;28;20043;-75
2023/09/21 11:11:19;;;;;;;14.52;7.95;;;;;;;26.71;38.48;100263.88;4928293;29;20156;-76
2023/09/21 11:13:54;;;;;;;13.30;7.32;;;;;;;26.74;38.61;100271.66;4943588;28;20052;-76
2023/09/21 11:16:21;;;;;;;14.45;7.88;;;;;;;26.78;38.75;100261.63;4928831;29;20047;-79
2023/09/21 11:18:50;;;;;;;9.77;7.75;;;;;;;26.90;38.73;100259.94;4940457;28;20095;-77
2023/09/21 11:21:16;;;;;;;12.25;7.50;;;;;;;27.22;38.31;100272.84;4919763;29;20047;-74
2023/09/21 11:23:43;;;;;;;12.15;7.60;;;;;;;27.39;38.29;100255.56;4914301;29;20155;-78
2023/09/21 11:26:14;;;;;;;12.52;7.38;;;;;;;27.78;38.07;100280.41;4943386;28;20047;-75
2023/09/21 11:28:42;;;;;;;12.27;8.20;;;;;;;27.60;37.63;100229.16;4927458;29;20522;-76